WMT7828 LIMC-LATI
Flight info
| Callsign | WMT7828 |
|---|---|
| Flight time | N/A |
| Altitude | 39000 |
| Route | VAKON DCT OTKEK DCT SOVUB DCT BAXON DCT SPL DCT GEBNI DCT MADOS DCT BALHA DCT TIBRI DCT BIGLO L187 LASTI L607 PETAK |
| Aircraft | A21N/M-SDE1E2E3FGIJ1J4RWXY/LB1 |
Departure
| Time | N/A |
|---|---|
| Airport | Milan Malpensa International Airport (LIMC) |
Arrival
| Time | 2026-05-08 23:40 |
|---|---|
| Airport | Tirana International Airport Mother Teresa (LATI) |
| Time | Latitude | Longitude | Altitude | Speed | Heading |
|---|---|---|---|---|---|
| 2026-05-08 22:39 | 44.97174 | 11.86617 | 38549 ft | 469 kts | 117° |
| 2026-05-08 22:40 | 44.95779 | 11.90799 | 38635 ft | 470 kts | 117° |
| 2026-05-08 22:40 | 44.94435 | 11.94824 | 38736 ft | 471 kts | 117° |
| 2026-05-08 22:40 | 44.93026 | 11.99035 | 38857 ft | 472 kts | 117° |
| 2026-05-08 22:41 | 44.90232 | 12.07339 | 39030 ft | 473 kts | 117° |
| 2026-05-08 22:41 | 44.87533 | 12.15199 | 39061 ft | 478 kts | 117° |
| 2026-05-08 22:42 | 44.84736 | 12.23308 | 39067 ft | 483 kts | 117° |
| 2026-05-08 22:42 | 44.81867 | 12.31637 | 39071 ft | 487 kts | 117° |
| 2026-05-08 22:43 | 44.78943 | 12.40124 | 39072 ft | 490 kts | 117° |
| 2026-05-08 22:43 | 44.75972 | 12.48734 | 39070 ft | 490 kts | 117° |
| 2026-05-08 22:44 | 44.72993 | 12.57336 | 39076 ft | 489 kts | 117° |
| 2026-05-08 22:44 | 44.70152 | 12.65512 | 39076 ft | 489 kts | 118° |
| 2026-05-08 22:45 | 44.67184 | 12.74063 | 39067 ft | 488 kts | 118° |
| 2026-05-08 22:45 | 44.64276 | 12.82398 | 39077 ft | 487 kts | 118° |
| 2026-05-08 22:46 | 44.61293 | 12.90906 | 39076 ft | 488 kts | 118° |
| 2026-05-08 22:46 | 44.58295 | 12.99428 | 39080 ft | 488 kts | 118° |
| 2026-05-08 22:47 | 44.55272 | 13.07995 | 39075 ft | 488 kts | 118° |
| 2026-05-08 22:47 | 44.52364 | 13.16212 | 39074 ft | 489 kts | 118° |
| 2026-05-08 22:48 | 44.49736 | 13.23614 | 39068 ft | 489 kts | 118° |
| 2026-05-08 22:48 | 44.46806 | 13.31844 | 39075 ft | 489 kts | 118° |
| 2026-05-08 22:49 | 44.43876 | 13.40044 | 39075 ft | 489 kts | 118° |
| 2026-05-08 22:49 | 44.39600 | 13.52878 | 39076 ft | 490 kts | 115° |
| 2026-05-08 22:50 | 44.36917 | 13.61622 | 39068 ft | 491 kts | 115° |
| 2026-05-08 22:50 | 44.34299 | 13.70132 | 39077 ft | 491 kts | 115° |
| 2026-05-08 22:51 | 44.31589 | 13.78920 | 39071 ft | 491 kts | 115° |
| 2026-05-08 22:51 | 44.28877 | 13.87656 | 39072 ft | 491 kts | 116° |
| 2026-05-08 22:52 | 44.26172 | 13.96330 | 39072 ft | 492 kts | 115° |
| 2026-05-08 22:52 | 44.23439 | 14.05060 | 39072 ft | 493 kts | 115° |
| 2026-05-08 22:53 | 44.20756 | 14.13606 | 39054 ft | 492 kts | 116° |
| 2026-05-08 22:53 | 44.18006 | 14.22337 | 39071 ft | 493 kts | 116° |
| 2026-05-08 22:54 | 44.15351 | 14.30737 | 39031 ft | 493 kts | 116° |
| 2026-05-08 22:54 | 44.12557 | 14.39544 | 39049 ft | 494 kts | 116° |
| 2026-05-08 22:55 | 44.09754 | 14.48355 | 39047 ft | 494 kts | 116° |
| 2026-05-08 22:55 | 44.06981 | 14.57040 | 39045 ft | 494 kts | 116° |
| 2026-05-08 22:56 | 44.04185 | 14.65767 | 39042 ft | 493 kts | 116° |
| 2026-05-08 22:56 | 44.01357 | 14.74598 | 39037 ft | 493 kts | 116° |
| 2026-05-08 22:57 | 43.98634 | 14.83064 | 39032 ft | 494 kts | 116° |
| 2026-05-08 22:57 | 43.95823 | 14.91759 | 39045 ft | 495 kts | 116° |
| 2026-05-08 22:58 | 43.93017 | 15.00405 | 39034 ft | 495 kts | 116° |
| 2026-05-08 22:58 | 43.90176 | 15.09131 | 39043 ft | 495 kts | 116° |
| 2026-05-08 22:59 | 43.87381 | 15.17621 | 39039 ft | 494 kts | 117° |
| 2026-05-08 22:59 | 43.84518 | 15.26281 | 39051 ft | 494 kts | 117° |
| 2026-05-08 23:00 | 43.81690 | 15.34859 | 39030 ft | 494 kts | 116° |
| 2026-05-08 23:00 | 43.78845 | 15.43477 | 39045 ft | 494 kts | 117° |
| 2026-05-08 23:01 | 43.76025 | 15.51996 | 39039 ft | 495 kts | 116° |
| 2026-05-08 23:01 | 43.73175 | 15.60580 | 39030 ft | 494 kts | 116° |
| 2026-05-08 23:02 | 43.70301 | 15.69223 | 39051 ft | 494 kts | 117° |
| 2026-05-08 23:02 | 43.67540 | 15.77523 | 39039 ft | 493 kts | 117° |
| 2026-05-08 23:03 | 43.64694 | 15.86026 | 39035 ft | 493 kts | 117° |
| 2026-05-08 23:03 | 43.61813 | 15.94601 | 39043 ft | 493 kts | 117° |
| 2026-05-08 23:04 | 43.58925 | 16.03163 | 39038 ft | 493 kts | 117° |
| 2026-05-08 23:04 | 43.56033 | 16.11710 | 39041 ft | 493 kts | 117° |
| 2026-05-08 23:05 | 43.53148 | 16.20215 | 39043 ft | 493 kts | 117° |
| 2026-05-08 23:05 | 43.50232 | 16.28778 | 39043 ft | 493 kts | 117° |
| 2026-05-08 23:06 | 43.47220 | 16.37212 | 39038 ft | 492 kts | 119° |
| 2026-05-08 23:06 | 43.44096 | 16.45580 | 39039 ft | 492 kts | 119° |
| 2026-05-08 23:07 | 43.41046 | 16.53762 | 39030 ft | 492 kts | 119° |
| 2026-05-08 23:07 | 43.37935 | 16.62112 | 39041 ft | 492 kts | 119° |
| 2026-05-08 23:08 | 43.34934 | 16.70176 | 39036 ft | 492 kts | 120° |
| 2026-05-08 23:08 | 43.31861 | 16.78422 | 39039 ft | 493 kts | 120° |
| 2026-05-08 23:09 | 43.28739 | 16.86758 | 39039 ft | 492 kts | 120° |
| 2026-05-08 23:09 | 43.25606 | 16.95099 | 39037 ft | 491 kts | 120° |
| 2026-05-08 23:10 | 43.22527 | 17.03252 | 39055 ft | 492 kts | 120° |
| 2026-05-08 23:10 | 43.19290 | 17.11456 | 39039 ft | 489 kts | 127° |
| 2026-05-08 23:11 | 43.15248 | 17.18463 | 38757 ft | 476 kts | 133° |
| 2026-05-08 23:11 | 43.13127 | 17.21919 | 38485 ft | 470 kts | 134° |
| 2026-05-08 23:11 | 43.11043 | 17.25314 | 38221 ft | 467 kts | 133° |
| 2026-05-08 23:12 | 43.08976 | 17.28696 | 37957 ft | 464 kts | 133° |
| 2026-05-08 23:12 | 43.06905 | 17.32103 | 37688 ft | 463 kts | 133° |
| 2026-05-08 23:12 | 43.04858 | 17.35478 | 37392 ft | 463 kts | 133° |
| 2026-05-08 23:12 | 43.02806 | 17.38864 | 37083 ft | 463 kts | 133° |
| 2026-05-08 23:13 | 43.00760 | 17.42244 | 36777 ft | 464 kts | 133° |
| 2026-05-08 23:13 | 42.98702 | 17.45639 | 36433 ft | 465 kts | 132° |
| 2026-05-08 23:13 | 42.96655 | 17.49015 | 35989 ft | 465 kts | 132° |
| 2026-05-08 23:13 | 42.94590 | 17.52420 | 35424 ft | 468 kts | 132° |
| 2026-05-08 23:14 | 42.92520 | 17.55826 | 34776 ft | 471 kts | 132° |
| 2026-05-08 23:14 | 42.90431 | 17.59258 | 34253 ft | 470 kts | 131° |
| 2026-05-08 23:14 | 42.88355 | 17.62659 | 33616 ft | 470 kts | 132° |
| 2026-05-08 23:14 | 42.86399 | 17.65852 | 33044 ft | 469 kts | 133° |
| 2026-05-08 23:15 | 42.84334 | 17.69233 | 32452 ft | 467 kts | 132° |
| 2026-05-08 23:15 | 42.82261 | 17.72633 | 31872 ft | 464 kts | 133° |
| 2026-05-08 23:15 | 42.80209 | 17.75991 | 31361 ft | 461 kts | 133° |
| 2026-05-08 23:15 | 42.78151 | 17.79359 | 30897 ft | 456 kts | 133° |
| 2026-05-08 23:16 | 42.76150 | 17.82626 | 30434 ft | 452 kts | 133° |
| 2026-05-08 23:16 | 42.74141 | 17.85903 | 29963 ft | 448 kts | 133° |
| 2026-05-08 23:16 | 42.72177 | 17.89100 | 29528 ft | 444 kts | 133° |
| 2026-05-08 23:16 | 42.70217 | 17.92285 | 29134 ft | 439 kts | 133° |
| 2026-05-08 23:17 | 42.68255 | 17.95474 | 28751 ft | 434 kts | 133° |
| 2026-05-08 23:17 | 42.66341 | 17.98579 | 28364 ft | 429 kts | 133° |
| 2026-05-08 23:17 | 42.64451 | 18.01643 | 27986 ft | 424 kts | 133° |
| 2026-05-08 23:17 | 42.62575 | 18.04680 | 27624 ft | 419 kts | 133° |
| 2026-05-08 23:18 | 42.60698 | 18.07717 | 27254 ft | 415 kts | 133° |
| 2026-05-08 23:18 | 42.58857 | 18.10692 | 26887 ft | 410 kts | 133° |
| 2026-05-08 23:18 | 42.57038 | 18.13630 | 26502 ft | 407 kts | 133° |
| 2026-05-08 23:18 | 42.55235 | 18.16537 | 26126 ft | 403 kts | 133° |
| 2026-05-08 23:19 | 42.53439 | 18.19430 | 25747 ft | 400 kts | 133° |
| 2026-05-08 23:19 | 42.51671 | 18.22275 | 25373 ft | 396 kts | 133° |
| 2026-05-08 23:19 | 42.49904 | 18.25117 | 25000 ft | 393 kts | 133° |
| 2026-05-08 23:19 | 42.48140 | 18.27951 | 24616 ft | 390 kts | 133° |
| 2026-05-08 23:20 | 42.46399 | 18.30747 | 24235 ft | 387 kts | 133° |
| 2026-05-08 23:20 | 42.44685 | 18.33496 | 23848 ft | 385 kts | 133° |
| 2026-05-08 23:20 | 42.43103 | 18.36031 | 23479 ft | 382 kts | 133° |
| 2026-05-08 23:20 | 42.41399 | 18.38757 | 23097 ft | 380 kts | 133° |
| 2026-05-08 23:21 | 42.39706 | 18.41466 | 22697 ft | 378 kts | 133° |
| 2026-05-08 23:21 | 42.38008 | 18.44177 | 22300 ft | 376 kts | 133° |
| 2026-05-08 23:21 | 42.36325 | 18.46861 | 21922 ft | 374 kts | 133° |
| 2026-05-08 23:21 | 42.34634 | 18.49558 | 21513 ft | 372 kts | 133° |
| 2026-05-08 23:22 | 42.32965 | 18.52216 | 21111 ft | 370 kts | 133° |
| 2026-05-08 23:22 | 42.31313 | 18.54844 | 20743 ft | 368 kts | 132° |
| 2026-05-08 23:22 | 42.29675 | 18.57451 | 20363 ft | 366 kts | 132° |
| 2026-05-08 23:22 | 42.28145 | 18.59882 | 19990 ft | 364 kts | 132° |
| 2026-05-08 23:23 | 42.26524 | 18.62458 | 19609 ft | 362 kts | 132° |
| 2026-05-08 23:23 | 42.24901 | 18.65032 | 19223 ft | 360 kts | 133° |
| 2026-05-08 23:23 | 42.23272 | 18.67623 | 18850 ft | 357 kts | 132° |
| 2026-05-08 23:23 | 42.21677 | 18.70165 | 18488 ft | 354 kts | 132° |
| 2026-05-08 23:24 | 42.20099 | 18.72672 | 18123 ft | 351 kts | 132° |
| 2026-05-08 23:24 | 42.18508 | 18.75195 | 17765 ft | 349 kts | 132° |
| 2026-05-08 23:24 | 42.16945 | 18.77669 | 17384 ft | 348 kts | 132° |
| 2026-05-08 23:24 | 42.15385 | 18.80131 | 17006 ft | 346 kts | 133° |
| 2026-05-08 23:25 | 42.13844 | 18.82560 | 16642 ft | 343 kts | 133° |
| 2026-05-08 23:25 | 42.12295 | 18.84997 | 16266 ft | 341 kts | 133° |
| 2026-05-08 23:25 | 42.10751 | 18.87427 | 15898 ft | 338 kts | 133° |
| 2026-05-08 23:25 | 42.09169 | 18.89703 | 15542 ft | 335 kts | 137° |
| 2026-05-08 23:26 | 42.07506 | 18.91920 | 15195 ft | 333 kts | 137° |
| 2026-05-08 23:26 | 42.05867 | 18.94101 | 14798 ft | 331 kts | 136° |
| 2026-05-08 23:26 | 42.04300 | 18.96307 | 14424 ft | 329 kts | 135° |
| 2026-05-08 23:26 | 42.02744 | 18.98541 | 14082 ft | 326 kts | 135° |
| 2026-05-08 23:27 | 42.01184 | 19.00774 | 13722 ft | 324 kts | 135° |
| 2026-05-08 23:27 | 41.99655 | 19.02953 | 13371 ft | 321 kts | 135° |
| 2026-05-08 23:27 | 41.98132 | 19.05114 | 13014 ft | 319 kts | 135° |
| 2026-05-08 23:27 | 41.96597 | 19.07287 | 12662 ft | 317 kts | 135° |
| 2026-05-08 23:28 | 41.95105 | 19.09397 | 12303 ft | 314 kts | 135° |
| 2026-05-08 23:28 | 41.93609 | 19.11508 | 11939 ft | 312 kts | 135° |
| 2026-05-08 23:28 | 41.92106 | 19.13627 | 11588 ft | 309 kts | 135° |
| 2026-05-08 23:28 | 41.90687 | 19.15628 | 11248 ft | 307 kts | 135° |
| 2026-05-08 23:29 | 41.89217 | 19.17696 | 10886 ft | 305 kts | 135° |
| 2026-05-08 23:29 | 41.87732 | 19.19767 | 10523 ft | 303 kts | 135° |
| 2026-05-08 23:29 | 41.86285 | 19.21788 | 10165 ft | 300 kts | 134° |
| 2026-05-08 23:29 | 41.84852 | 19.23802 | 9976 ft | 291 kts | 134° |
| 2026-05-08 23:30 | 41.83461 | 19.25756 | 9663 ft | 287 kts | 135° |
| 2026-05-08 23:30 | 41.82095 | 19.27673 | 9338 ft | 284 kts | 134° |
| 2026-05-08 23:30 | 41.80735 | 19.29579 | 9013 ft | 281 kts | 134° |
| 2026-05-08 23:30 | 41.79401 | 19.31453 | 8712 ft | 277 kts | 134° |
| 2026-05-08 23:31 | 41.78069 | 19.33320 | 8405 ft | 275 kts | 135° |
| 2026-05-08 23:31 | 41.76751 | 19.35165 | 8112 ft | 272 kts | 134° |
| 2026-05-08 23:31 | 41.75446 | 19.36991 | 7807 ft | 268 kts | 134° |
| 2026-05-08 23:31 | 41.74163 | 19.38788 | 7511 ft | 265 kts | 133° |
| 2026-05-08 23:32 | 41.72898 | 19.40554 | 7218 ft | 262 kts | 134° |
| 2026-05-08 23:32 | 41.71659 | 19.42285 | 6923 ft | 259 kts | 133° |
| 2026-05-08 23:32 | 41.70410 | 19.44031 | 6618 ft | 256 kts | 132° |
| 2026-05-08 23:32 | 41.69191 | 19.45734 | 6341 ft | 253 kts | 131° |
| 2026-05-08 23:33 | 41.67976 | 19.47435 | 6074 ft | 250 kts | 132° |
| 2026-05-08 23:33 | 41.66793 | 19.49089 | 5798 ft | 248 kts | 133° |
| 2026-05-08 23:33 | 41.65648 | 19.50683 | 5522 ft | 246 kts | 131° |
| 2026-05-08 23:33 | 41.64482 | 19.52357 | 5232 ft | 244 kts | 126° |
| 2026-05-08 23:34 | 41.63825 | 19.54342 | 5147 ft | 228 kts | 97° |
| 2026-05-08 23:34 | 41.63869 | 19.56461 | 5100 ft | 228 kts | 84° |
| 2026-05-08 23:34 | 41.64048 | 19.58554 | 5041 ft | 229 kts | 84° |
| 2026-05-08 23:34 | 41.64225 | 19.60681 | 4967 ft | 229 kts | 84° |
| 2026-05-08 23:35 | 41.64390 | 19.62778 | 4822 ft | 229 kts | 84° |
| 2026-05-08 23:35 | 41.64552 | 19.64884 | 4666 ft | 227 kts | 84° |
| 2026-05-08 23:35 | 41.64711 | 19.67002 | 4478 ft | 226 kts | 85° |
| 2026-05-08 23:35 | 41.64672 | 19.68945 | 4062 ft | 229 kts | 109° |
| 2026-05-08 23:36 | 41.63815 | 19.70680 | 3988 ft | 221 kts | 142° |
| 2026-05-08 23:36 | 41.62385 | 19.71466 | 3869 ft | 226 kts | 174° |
| 2026-05-08 23:36 | 41.60815 | 19.71274 | 3605 ft | 224 kts | 190° |
| 2026-05-08 23:36 | 41.59314 | 19.70815 | 3310 ft | 224 kts | 193° |
| 2026-05-08 23:37 | 41.57772 | 19.70344 | 3010 ft | 222 kts | 188° |
| 2026-05-08 23:37 | 41.56255 | 19.70181 | 2737 ft | 218 kts | 179° |
| 2026-05-08 23:37 | 41.54780 | 19.70271 | 2560 ft | 207 kts | 175° |
| 2026-05-08 23:37 | 41.53350 | 19.70460 | 2252 ft | 198 kts | 173° |
| 2026-05-08 23:38 | 41.52027 | 19.70651 | 1999 ft | 182 kts | 173° |
| 2026-05-08 23:38 | 41.50853 | 19.70814 | 1745 ft | 167 kts | 174° |
| 2026-05-08 23:38 | 41.49747 | 19.70961 | 1498 ft | 153 kts | 174° |
| 2026-05-08 23:38 | 41.48721 | 19.71096 | 1285 ft | 145 kts | 174° |
| 2026-05-08 23:39 | 41.47714 | 19.71229 | 1101 ft | 145 kts | 174° |
| 2026-05-08 23:39 | 41.46696 | 19.71368 | 920 ft | 146 kts | 173° |
| 2026-05-08 23:39 | 41.45690 | 19.71529 | 750 ft | 146 kts | 174° |
| 2026-05-08 23:39 | 41.44669 | 19.71657 | 548 ft | 146 kts | 174° |
| 2026-05-08 23:40 | 41.43646 | 19.71783 | 340 ft | 145 kts | 174° |
| 2026-05-08 23:40 | 41.42704 | 19.71895 | 155 ft | 145 kts | 175° |
| 2026-05-08 23:40 | 41.41774 | 19.72019 | 120 ft | 106 kts | 173° |
| 2026-05-08 23:40 | 41.41316 | 19.72077 | 125 ft | 47 kts | 174° |
| 2026-05-08 23:41 | 41.41008 | 19.72116 | 127 ft | 42 kts | 175° |
| 2026-05-08 23:41 | 41.40739 | 19.72151 | 128 ft | 22 kts | 174° |
| 2026-05-08 23:41 | 41.40684 | 19.72110 | 129 ft | 4 kts | 259° |
| 2026-05-08 23:41 | 41.40675 | 19.72061 | 129 ft | 6 kts | 255° |
| 2026-05-08 23:42 | 41.40661 | 19.71992 | 129 ft | 8 kts | 255° |
| 2026-05-08 23:42 | 41.40643 | 19.71901 | 129 ft | 11 kts | 256° |
| 2026-05-08 23:42 | 41.40642 | 19.71798 | 128 ft | 11 kts | 304° |
| 2026-05-08 23:42 | 41.40724 | 19.71759 | 128 ft | 13 kts | 358° |
| 2026-05-08 23:43 | 41.40827 | 19.71746 | 127 ft | 15 kts | 349° |
| 2026-05-08 23:43 | 41.40937 | 19.71719 | 126 ft | 15 kts | 351° |
| 2026-05-08 23:43 | 41.41043 | 19.71699 | 126 ft | 16 kts | 353° |
| 2026-05-08 23:43 | 41.41159 | 19.71684 | 125 ft | 17 kts | 355° |
| 2026-05-08 23:44 | 41.41287 | 19.71670 | 124 ft | 19 kts | 355° |
| 2026-05-08 23:44 | 41.41421 | 19.71653 | 123 ft | 19 kts | 354° |
| 2026-05-08 23:44 | 41.41560 | 19.71635 | 121 ft | 20 kts | 354° |
| 2026-05-08 23:44 | 41.41707 | 19.71615 | 120 ft | 21 kts | 354° |
| 2026-05-08 23:45 | 41.41841 | 19.71598 | 118 ft | 19 kts | 354° |
| 2026-05-08 23:45 | 41.41971 | 19.71580 | 117 ft | 18 kts | 354° |
| 2026-05-08 23:45 | 41.42043 | 19.71570 | 116 ft | 4 kts | 353° |
| 2026-05-08 23:45 | 41.42065 | 19.71539 | 116 ft | 6 kts | 283° |
| 2026-05-08 23:46 | 41.42065 | 19.71508 | 116 ft | 2 kts | 266° |
| 2026-05-08 23:46 | 41.42064 | 19.71496 | 116 ft | 0 kts | 265° |